sensor_id;sensor_type;location;lat;lon;timestamp;pressure;altitude;pressure_sealevel;temperature;humidity
6024;BME280;3040;42.654;23.296;2023-04-26T00:02:10;93314.38;;;12.05;80.98
6024;BME280;3040;42.654;23.296;2023-04-26T00:04:37;93307.88;;;11.65;82.88
6024;BME280;3040;42.654;23.296;2023-04-26T00:07:05;93303.31;;;11.62;81.68
6024;BME280;3040;42.654;23.296;2023-04-26T00:09:33;93213.38;;;10.71;83.01
6024;BME280;3040;42.654;23.296;2023-04-26T00:12:00;93304.53;;;11.35;83.24
6024;BME280;3040;42.654;23.296;2023-04-26T00:14:27;93286.97;;;11.27;83.87
6024;BME280;3040;42.654;23.296;2023-04-26T00:16:54;93290.94;;;11.43;83.95
6024;BME280;3040;42.654;23.296;2023-04-26T00:19:23;93280.38;;;11.51;84.40
6024;BME280;3040;42.654;23.296;2023-04-26T00:21:50;93283.13;;;11.61;83.01
6024;BME280;3040;42.654;23.296;2023-04-26T00:24:18;93291.84;;;11.58;82.07
6024;BME280;3040;42.654;23.296;2023-04-26T00:26:45;93287.19;;;11.52;82.27
6024;BME280;3040;42.654;23.296;2023-04-26T00:29:12;93287.94;;;11.45;81.97
6024;BME280;3040;42.654;23.296;2023-04-26T00:31:39;93281.75;;;11.37;82.14
6024;BME280;3040;42.654;23.296;2023-04-26T00:34:05;93274.22;;;11.43;82.49
6024;BME280;3040;42.654;23.296;2023-04-26T00:36:32;93203.88;;;11.07;81.18
6024;BME280;3040;42.654;23.296;2023-04-26T00:38:59;93271.22;;;11.48;80.88
6024;BME280;3040;42.654;23.296;2023-04-26T00:41:27;93271.56;;;11.47;81.45
6024;BME280;3040;42.654;23.296;2023-04-26T00:43:54;93277.31;;;11.52;81.87
6024;BME280;3040;42.654;23.296;2023-04-26T00:46:21;93266.69;;;11.52;80.40
6024;BME280;3040;42.654;23.296;2023-04-26T00:48:48;93272.47;;;11.21;81.84
6024;BME280;3040;42.654;23.296;2023-04-26T00:51:15;93273.00;;;11.03;81.80
6024;BME280;3040;42.654;23.296;2023-04-26T00:53:42;93276.97;;;11.17;82.54
6024;BME280;3040;42.654;23.296;2023-04-26T00:56:09;93269.03;;;11.20;81.70
6024;BME280;3040;42.654;23.296;2023-04-26T00:58:38;93258.81;;;11.26;82.20
6024;BME280;3040;42.654;23.296;2023-04-26T01:01:05;93271.47;;;11.36;81.48
6024;BME280;3040;42.654;23.296;2023-04-26T01:03:32;93281.44;;;11.46;80.78
6024;BME280;3040;42.654;23.296;2023-04-26T01:06:00;93279.19;;;11.48;79.92
6024;BME280;3040;42.654;23.296;2023-04-26T01:08:27;93281.13;;;11.51;80.07
6024;BME280;3040;42.654;23.296;2023-04-26T01:10:54;93286.47;;;11.51;79.43
6024;BME280;3040;42.654;23.296;2023-04-26T01:13:21;93281.13;;;11.51;79.80
6024;BME280;3040;42.654;23.296;2023-04-26T01:15:51;93282.28;;;11.54;79.54
6024;BME280;3040;42.654;23.296;2023-04-26T01:18:18;93279.56;;;11.47;79.23
6024;BME280;3040;42.654;23.296;2023-04-26T01:20:45;93252.03;;;11.32;78.82
6024;BME280;3040;42.654;23.296;2023-04-26T01:23:14;93270.41;;;11.44;78.77
6024;BME280;3040;42.654;23.296;2023-04-26T01:25:41;93261.94;;;11.35;79.02
6024;BME280;3040;42.654;23.296;2023-04-26T01:28:08;93253.56;;;11.33;79.27
6024;BME280;3040;42.654;23.296;2023-04-26T01:30:44;93257.69;;;10.93;80.64
6024;BME280;3040;42.654;23.296;2023-04-26T01:33:10;93238.31;;;10.63;81.47
6024;BME280;3040;42.654;23.296;2023-04-26T01:35:39;93273.97;;;10.88;80.90
6024;BME280;3040;42.654;23.296;2023-04-26T01:38:06;93277.19;;;11.05;80.55
6024;BME280;3040;42.654;23.296;2023-04-26T01:40:35;93263.13;;;11.04;80.18
6024;BME280;3040;42.654;23.296;2023-04-26T01:43:01;93279.22;;;11.15;80.45
6024;BME280;3040;42.654;23.296;2023-04-26T01:45:28;93273.09;;;11.11;79.56
6024;BME280;3040;42.654;23.296;2023-04-26T01:47:56;93279.63;;;11.17;79.47
6024;BME280;3040;42.654;23.296;2023-04-26T01:50:23;93269.13;;;10.97;79.75
6024;BME280;3040;42.654;23.296;2023-04-26T01:52:50;93276.75;;;10.99;81.39
6024;BME280;3040;42.654;23.296;2023-04-26T01:55:17;93270.31;;;10.70;81.63
6024;BME280;3040;42.654;23.296;2023-04-26T01:57:45;93259.78;;;10.77;82.57
6024;BME280;3040;42.654;23.296;2023-04-26T02:00:12;93262.91;;;10.86;81.80
6024;BME280;3040;42.654;23.296;2023-04-26T02:02:39;93252.03;;;10.65;83.12
6024;BME280;3040;42.654;23.296;2023-04-26T02:05:09;93254.09;;;10.49;83.58
6024;BME280;3040;42.654;23.296;2023-04-26T02:07:36;93234.22;;;10.39;84.55
6024;BME280;3040;42.654;23.296;2023-04-26T02:10:04;93252.50;;;10.44;83.61
6024;BME280;3040;42.654;23.296;2023-04-26T02:12:31;93255.22;;;10.48;84.03
6024;BME280;3040;42.654;23.296;2023-04-26T02:14:59;93256.84;;;10.56;85.50
6024;BME280;3040;42.654;23.296;2023-04-26T02:17:26;93252.69;;;10.58;84.24
6024;BME280;3040;42.654;23.296;2023-04-26T02:19:53;93245.22;;;10.68;83.79
6024;BME280;3040;42.654;23.296;2023-04-26T02:22:21;93246.44;;;10.74;83.85
6024;BME280;3040;42.654;23.296;2023-04-26T02:24:49;93246.97;;;10.86;83.36
6024;BME280;3040;42.654;23.296;2023-04-26T02:27:17;93249.47;;;10.72;82.24
6024;BME280;3040;42.654;23.296;2023-04-26T02:29:44;93237.06;;;10.24;84.61
6024;BME280;3040;42.654;23.296;2023-04-26T02:32:12;93250.72;;;10.26;85.44
6024;BME280;3040;42.654;23.296;2023-04-26T02:34:39;93256.81;;;10.26;85.55
6024;BME280;3040;42.654;23.296;2023-04-26T02:37:06;93254.44;;;10.17;87.01
6024;BME280;3040;42.654;23.296;2023-04-26T02:39:33;93253.09;;;10.31;86.25
6024;BME280;3040;42.654;23.296;2023-04-26T02:42:00;93202.69;;;10.11;87.49
6024;BME280;3040;42.654;23.296;2023-04-26T02:44:28;93247.31;;;10.55;85.54
6024;BME280;3040;42.654;23.296;2023-04-26T02:46:55;93228.34;;;10.53;85.40
6024;BME280;3040;42.654;23.296;2023-04-26T02:49:24;93243.06;;;10.77;84.19
6024;BME280;3040;42.654;23.296;2023-04-26T02:51:51;93224.13;;;10.82;83.62
6024;BME280;3040;42.654;23.296;2023-04-26T02:54:17;93236.41;;;10.93;83.26
6024;BME280;3040;42.654;23.296;2023-04-26T02:56:44;93232.28;;;10.99;83.29
6024;BME280;3040;42.654;23.296;2023-04-26T02:59:11;93231.97;;;11.05;83.28
6024;BME280;3040;42.654;23.296;2023-04-26T03:01:39;93231.88;;;10.97;84.23
6024;BME280;3040;42.654;23.296;2023-04-26T03:04:06;93238.09;;;10.75;84.32
6024;BME280;3040;42.654;23.296;2023-04-26T03:06:34;93237.09;;;10.87;85.33
6024;BME280;3040;42.654;23.296;2023-04-26T03:09:01;93234.84;;;10.89;84.98
6024;BME280;3040;42.654;23.296;2023-04-26T03:11:29;93211.91;;;10.77;85.28
6024;BME280;3040;42.654;23.296;2023-04-26T03:13:56;93234.63;;;11.05;85.66
6024;BME280;3040;42.654;23.296;2023-04-26T03:16:23;93231.34;;;11.15;84.59
6024;BME280;3040;42.654;23.296;2023-04-26T03:18:50;93235.22;;;11.24;84.38
6024;BME280;3040;42.654;23.296;2023-04-26T03:21:16;93230.59;;;11.18;83.36
6024;BME280;3040;42.654;23.296;2023-04-26T03:23:45;93237.66;;;11.40;83.19
6024;BME280;3040;42.654;23.296;2023-04-26T03:26:11;93240.03;;;11.49;82.23
6024;BME280;3040;42.654;23.296;2023-04-26T03:28:40;93209.84;;;11.34;82.88
6024;BME280;3040;42.654;23.296;2023-04-26T03:31:07;93239.28;;;11.52;82.69
6024;BME280;3040;42.654;23.296;2023-04-26T03:33:34;93237.38;;;11.49;83.22
6024;BME280;3040;42.654;23.296;2023-04-26T03:36:01;93236.19;;;11.46;83.46
6024;BME280;3040;42.654;23.296;2023-04-26T03:38:27;93243.13;;;11.54;83.84
6024;BME280;3040;42.654;23.296;2023-04-26T03:40:56;93211.78;;;11.37;83.54
6024;BME280;3040;42.654;23.296;2023-04-26T03:43:23;93245.81;;;11.58;84.33
6024;BME280;3040;42.654;23.296;2023-04-26T03:45:50;93246.97;;;11.60;82.60
6024;BME280;3040;42.654;23.296;2023-04-26T03:48:17;93241.72;;;11.67;83.69
6024;BME280;3040;42.654;23.296;2023-04-26T03:50:44;93231.41;;;11.62;83.31
6024;BME280;3040;42.654;23.296;2023-04-26T03:53:11;93238.63;;;11.62;84.00
6024;BME280;3040;42.654;23.296;2023-04-26T03:55:38;93229.94;;;11.68;82.92
6024;BME280;3040;42.654;23.296;2023-04-26T03:58:06;93147.81;;;11.26;82.95
6024;BME280;3040;42.654;23.296;2023-04-26T04:00:33;93250.59;;;11.78;81.72
6024;BME280;3040;42.654;23.296;2023-04-26T04:03:00;93252.22;;;11.53;83.36
6024;BME280;3040;42.654;23.296;2023-04-26T04:05:27;93261.22;;;11.38;84.18
6024;BME280;3040;42.654;23.296;2023-04-26T04:07:54;93263.72;;;11.24;85.72
6024;BME280;3040;42.654;23.296;2023-04-26T04:10:21;93267.50;;;11.23;86.81
6024;BME280;3040;42.654;23.296;2023-04-26T04:12:48;93269.31;;;11.15;86.63
6024;BME280;3040;42.654;23.296;2023-04-26T04:15:17;93264.94;;;11.30;86.25
6024;BME280;3040;42.654;23.296;2023-04-26T04:17:45;93263.19;;;11.45;86.46
6024;BME280;3040;42.654;23.296;2023-04-26T04:20:12;93262.75;;;11.39;85.80
6024;BME280;3040;42.654;23.296;2023-04-26T04:22:39;93271.22;;;11.48;86.34
6024;BME280;3040;42.654;23.296;2023-04-26T04:25:07;93263.38;;;11.62;86.10
6024;BME280;3040;42.654;23.296;2023-04-26T04:27:35;93202.66;;;11.38;85.51
6024;BME280;3040;42.654;23.296;2023-04-26T04:30:03;93270.88;;;11.94;85.85
6024;BME280;3040;42.654;23.296;2023-04-26T04:32:33;93285.38;;;12.00;85.14
6024;BME280;3040;42.654;23.296;2023-04-26T04:35:00;93264.06;;;12.00;85.50
6024;BME280;3040;42.654;23.296;2023-04-26T04:37:27;93288.63;;;12.23;85.39
6024;BME280;3040;42.654;23.296;2023-04-26T04:39:54;93291.25;;;12.19;84.03
6024;BME280;3040;42.654;23.296;2023-04-26T04:42:21;93278.94;;;12.01;83.67
6024;BME280;3040;42.654;23.296;2023-04-26T04:44:48;93277.16;;;12.15;84.02
6024;BME280;3040;42.654;23.296;2023-04-26T04:47:15;93288.63;;;12.23;83.78
6024;BME280;3040;42.654;23.296;2023-04-26T04:49:44;93285.22;;;11.78;83.76
6024;BME280;3040;42.654;23.296;2023-04-26T04:52:11;93286.94;;;12.01;83.91
6024;BME280;3040;42.654;23.296;2023-04-26T04:54:38;93277.09;;;12.08;83.10
6024;BME280;3040;42.654;23.296;2023-04-26T04:57:05;93296.22;;;12.17;82.44
6024;BME280;3040;42.654;23.296;2023-04-26T04:59:32;93290.06;;;12.10;82.39
6024;BME280;3040;42.654;23.296;2023-04-26T05:01:58;93283.34;;;12.30;83.51
6024;BME280;3040;42.654;23.296;2023-04-26T05:04:25;93287.22;;;12.40;82.58
6024;BME280;3040;42.654;23.296;2023-04-26T05:06:54;93290.13;;;12.17;81.56
6024;BME280;3040;42.654;23.296;2023-04-26T05:09:21;93286.97;;;12.08;82.78
6024;BME280;3040;42.654;23.296;2023-04-26T05:11:47;93288.59;;;12.16;82.50
6024;BME280;3040;42.654;23.296;2023-04-26T05:14:14;93293.25;;;12.30;81.63
6024;BME280;3040;42.654;23.296;2023-04-26T05:16:41;93289.56;;;12.48;80.51
6024;BME280;3040;42.654;23.296;2023-04-26T05:19:08;93268.22;;;12.48;80.60
6024;BME280;3040;42.654;23.296;2023-04-26T05:21:35;93302.72;;;12.82;80.25
6024;BME280;3040;42.654;23.296;2023-04-26T05:24:03;93296.72;;;12.99;78.31
6024;BME280;3040;42.654;23.296;2023-04-26T05:26:30;93284.59;;;13.12;77.39
6024;BME280;3040;42.654;23.296;2023-04-26T05:28:57;93299.13;;;13.22;78.21
6024;BME280;3040;42.654;23.296;2023-04-26T05:31:24;93302.09;;;13.06;77.75
6024;BME280;3040;42.654;23.296;2023-04-26T05:33:51;93281.09;;;13.01;77.58
6024;BME280;3040;42.654;23.296;2023-04-26T05:36:18;93305.47;;;12.99;78.63
6024;BME280;3040;42.654;23.296;2023-04-26T05:38:45;93299.78;;;13.04;79.21
6024;BME280;3040;42.654;23.296;2023-04-26T05:41:14;93297.50;;;13.10;79.75
6024;BME280;3040;42.654;23.296;2023-04-26T05:43:41;93312.88;;;13.24;78.56
6024;BME280;3040;42.654;23.296;2023-04-26T05:46:07;93310.63;;;13.36;77.91
6024;BME280;3040;42.654;23.296;2023-04-26T05:48:34;93304.53;;;13.47;78.27
6024;BME280;3040;42.654;23.296;2023-04-26T05:51:01;93304.63;;;13.68;78.41
6024;BME280;3040;42.654;23.296;2023-04-26T05:53:28;93306.94;;;13.80;77.39
6024;BME280;3040;42.654;23.296;2023-04-26T05:55:55;93299.69;;;13.91;77.90
6024;BME280;3040;42.654;23.296;2023-04-26T05:58:23;93311.53;;;14.04;74.44
6024;BME280;3040;42.654;23.296;2023-04-26T06:00:50;93318.44;;;14.16;73.51
6024;BME280;3040;42.654;23.296;2023-04-26T06:03:17;93314.59;;;14.27;74.37
6024;BME280;3040;42.654;23.296;2023-04-26T06:05:44;93319.22;;;14.45;73.86
6024;BME280;3040;42.654;23.296;2023-04-26T06:08:11;93315.75;;;14.41;73.86
6024;BME280;3040;42.654;23.296;2023-04-26T06:10:38;93316.50;;;14.27;72.27
6024;BME280;3040;42.654;23.296;2023-04-26T06:13:04;93320.31;;;14.12;72.01
6024;BME280;3040;42.654;23.296;2023-04-26T06:15:33;93317.28;;;13.02;68.16
6024;BME280;3040;42.654;23.296;2023-04-26T06:17:59;93315.69;;;12.87;70.80
6024;BME280;3040;42.654;23.296;2023-04-26T06:20:26;93317.44;;;12.07;71.89
6024;BME280;3040;42.654;23.296;2023-04-26T06:22:53;93315.28;;;12.23;75.43
6024;BME280;3040;42.654;23.296;2023-04-26T06:25:21;93313.72;;;12.18;73.17
6024;BME280;3040;42.654;23.296;2023-04-26T06:27:47;93312.56;;;12.16;74.47
6024;BME280;3040;42.654;23.296;2023-04-26T06:30:14;93315.50;;;11.63;72.18
6024;BME280;3040;42.654;23.296;2023-04-26T06:32:42;93322.38;;;11.31;74.41
6024;BME280;3040;42.654;23.296;2023-04-26T06:35:10;93318.91;;;11.27;76.18
6024;BME280;3040;42.654;23.296;2023-04-26T06:37:37;93319.28;;;11.62;77.01
6024;BME280;3040;42.654;23.296;2023-04-26T06:40:05;93323.78;;;11.92;75.44
6024;BME280;3040;42.654;23.296;2023-04-26T06:42:32;93319.50;;;11.83;73.92
6024;BME280;3040;42.654;23.296;2023-04-26T06:44:59;93312.44;;;11.65;75.15
6024;BME280;3040;42.654;23.296;2023-04-26T06:47:25;93316.47;;;11.15;74.24
6024;BME280;3040;42.654;23.296;2023-04-26T06:49:54;93313.75;;;11.11;79.66
6024;BME280;3040;42.654;23.296;2023-04-26T06:52:20;93315.53;;;12.07;82.99
6024;BME280;3040;42.654;23.296;2023-04-26T06:54:47;93324.50;;;12.36;76.75
6024;BME280;3040;42.654;23.296;2023-04-26T06:57:14;93329.84;;;12.36;73.07
6024;BME280;3040;42.654;23.296;2023-04-26T06:59:43;93331.91;;;12.60;73.12
6024;BME280;3040;42.654;23.296;2023-04-26T07:02:10;93306.81;;;12.65;72.36
6024;BME280;3040;42.654;23.296;2023-04-26T07:04:37;93340.81;;;12.79;72.08
6024;BME280;3040;42.654;23.296;2023-04-26T07:07:05;93342.38;;;12.87;69.51
6024;BME280;3040;42.654;23.296;2023-04-26T07:09:32;93329.59;;;12.55;71.33
6024;BME280;3040;42.654;23.296;2023-04-26T07:11:59;93315.28;;;12.78;67.71
6024;BME280;3040;42.654;23.296;2023-04-26T07:14:26;93343.06;;;12.70;69.90
6024;BME280;3040;42.654;23.296;2023-04-26T07:16:53;93336.72;;;12.37;67.12
6024;BME280;3040;42.654;23.296;2023-04-26T07:19:20;93205.47;;;10.78;69.83
6024;BME280;3040;42.654;23.296;2023-04-26T07:21:47;93320.53;;;12.12;69.97
6024;BME280;3040;42.654;23.296;2023-04-26T07:24:16;93339.94;;;12.13;65.57
6024;BME280;3040;42.654;23.296;2023-04-26T07:26:42;93325.06;;;12.08;65.88
6024;BME280;3040;42.654;23.296;2023-04-26T07:29:09;93339.00;;;12.35;66.12
6024;BME280;3040;42.654;23.296;2023-04-26T07:31:37;93314.94;;;11.80;64.11
6024;BME280;3040;42.654;23.296;2023-04-26T07:34:03;93325.94;;;11.46;65.06
6024;BME280;3040;42.654;23.296;2023-04-26T07:36:30;93317.66;;;11.51;64.85
6024;BME280;3040;42.654;23.296;2023-04-26T07:38:57;93336.72;;;11.56;64.97
6024;BME280;3040;42.654;23.296;2023-04-26T07:41:25;93341.38;;;11.66;66.56
6024;BME280;3040;42.654;23.296;2023-04-26T07:43:52;93346.09;;;11.47;65.44
6024;BME280;3040;42.654;23.296;2023-04-26T07:46:19;93369.06;;;11.25;65.14
6024;BME280;3040;42.654;23.296;2023-04-26T07:48:46;93352.75;;;10.96;66.20
6024;BME280;3040;42.654;23.296;2023-04-26T07:51:13;93358.13;;;11.03;68.06
6024;BME280;3040;42.654;23.296;2023-04-26T07:53:40;93225.38;;;10.32;66.65
6024;BME280;3040;42.654;23.296;2023-04-26T07:56:08;93364.97;;;11.01;67.12
6024;BME280;3040;42.654;23.296;2023-04-26T07:58:36;93348.13;;;10.93;67.08
6024;BME280;3040;42.654;23.296;2023-04-26T08:01:04;93098.59;;;9.46;67.74
6024;BME280;3040;42.654;23.296;2023-04-26T08:03:33;93346.13;;;11.17;67.81
6024;BME280;3040;42.654;23.296;2023-04-26T08:06:00;93344.81;;;11.67;66.33
6024;BME280;3040;42.654;23.296;2023-04-26T08:08:27;93344.31;;;11.54;65.53
6024;BME280;3040;42.654;23.296;2023-04-26T08:10:54;93352.22;;;11.80;67.44
6024;BME280;3040;42.654;23.296;2023-04-26T08:13:21;93351.06;;;11.48;66.58
6024;BME280;3040;42.654;23.296;2023-04-26T08:15:49;93352.06;;;11.33;66.04
6024;BME280;3040;42.654;23.296;2023-04-26T08:18:16;93363.75;;;11.25;65.43
6024;BME280;3040;42.654;23.296;2023-04-26T08:20:43;93355.97;;;11.13;65.90
6024;BME280;3040;42.654;23.296;2023-04-26T08:23:10;93372.03;;;11.20;66.58
6024;BME280;3040;42.654;23.296;2023-04-26T08:25:37;93344.84;;;11.70;68.75
6024;BME280;3040;42.654;23.296;2023-04-26T08:28:04;93364.53;;;11.96;67.45
6024;BME280;3040;42.654;23.296;2023-04-26T08:30:32;93345.22;;;11.69;64.79
6024;BME280;3040;42.654;23.296;2023-04-26T08:33:00;93365.84;;;11.75;66.36
6024;BME280;3040;42.654;23.296;2023-04-26T08:35:27;93363.03;;;11.61;65.32
6024;BME280;3040;42.654;23.296;2023-04-26T08:37:54;93369.44;;;11.90;67.10
6024;BME280;3040;42.654;23.296;2023-04-26T08:40:22;93358.81;;;11.60;65.50
6024;BME280;3040;42.654;23.296;2023-04-26T08:42:50;93204.22;;;10.69;65.38
6024;BME280;3040;42.654;23.296;2023-04-26T08:45:18;93336.00;;;12.00;65.78
6024;BME280;3040;42.654;23.296;2023-04-26T08:47:47;93359.34;;;12.10;63.89
6024;BME280;3040;42.654;23.296;2023-04-26T08:50:18;93368.31;;;11.95;64.63
6024;BME280;3040;42.654;23.296;2023-04-26T08:52:47;93368.53;;;12.16;63.15
6024;BME280;3040;42.654;23.296;2023-04-26T08:55:16;93364.00;;;12.20;64.99
6024;BME280;3040;42.654;23.296;2023-04-26T08:57:45;93315.69;;;11.81;64.20
6024;BME280;3040;42.654;23.296;2023-04-26T09:00:13;93336.38;;;11.61;65.51
6024;BME280;3040;42.654;23.296;2023-04-26T09:02:40;93364.34;;;11.74;64.44
6024;BME280;3040;42.654;23.296;2023-04-26T09:05:11;93382.03;;;12.37;65.15
6024;BME280;3040;42.654;23.296;2023-04-26T09:07:42;93372.63;;;12.50;62.65
6024;BME280;3040;42.654;23.296;2023-04-26T09:10:10;93368.50;;;12.60;62.95
6024;BME280;3040;42.654;23.296;2023-04-26T09:12:38;93206.34;;;12.18;62.55
6024;BME280;3040;42.654;23.296;2023-04-26T09:15:06;93364.91;;;13.65;61.02
6024;BME280;3040;42.654;23.296;2023-04-26T09:17:34;93379.03;;;12.93;59.88
6024;BME280;3040;42.654;23.296;2023-04-26T09:20:18;93362.75;;;12.54;62.25
6024;BME280;3040;42.654;23.296;2023-04-26T09:22:47;93378.31;;;13.03;61.20
6024;BME280;3040;42.654;23.296;2023-04-26T09:25:15;93391.59;;;12.93;60.15
6024;BME280;3040;42.654;23.296;2023-04-26T09:27:43;93379.09;;;13.04;61.90
6024;BME280;3040;42.654;23.296;2023-04-26T09:30:12;93378.94;;;13.44;61.01
6024;BME280;3040;42.654;23.296;2023-04-26T09:32:51;93391.75;;;13.14;60.19
6024;BME280;3040;42.654;23.296;2023-04-26T09:35:24;93385.31;;;13.22;60.22
6024;BME280;3040;42.654;23.296;2023-04-26T09:37:54;93263.59;;;12.35;59.31
6024;BME280;3040;42.654;23.296;2023-04-26T09:40:21;93379.69;;;13.41;58.54
6024;BME280;3040;42.654;23.296;2023-04-26T09:42:56;93360.22;;;13.37;58.94
6024;BME280;3040;42.654;23.296;2023-04-26T09:45:23;93372.94;;;13.76;57.79
6024;BME280;3040;42.654;23.296;2023-04-26T09:47:50;93373.81;;;14.15;58.31
6024;BME280;3040;42.654;23.296;2023-04-26T09:50:30;93366.53;;;14.23;55.26
6024;BME280;3040;42.654;23.296;2023-04-26T09:52:58;93304.47;;;13.32;57.68
6024;BME280;3040;42.654;23.296;2023-04-26T09:55:26;93366.50;;;14.05;57.88
6024;BME280;3040;42.654;23.296;2023-04-26T09:57:54;93389.81;;;14.12;55.35
6024;BME280;3040;42.654;23.296;2023-04-26T10:00:23;93269.50;;;13.76;57.71
6024;BME280;3040;42.654;23.296;2023-04-26T10:02:51;93299.72;;;14.41;55.94
6024;BME280;3040;42.654;23.296;2023-04-26T10:05:19;93365.03;;;14.25;53.88
6024;BME280;3040;42.654;23.296;2023-04-26T10:07:49;93251.88;;;13.51;56.84
6024;BME280;3040;42.654;23.296;2023-04-26T10:10:18;93352.06;;;14.63;55.91
6024;BME280;3040;42.654;23.296;2023-04-26T10:12:46;93365.00;;;15.07;53.72
6024;BME280;3040;42.654;23.296;2023-04-26T10:15:14;93364.94;;;15.32;50.89
6024;BME280;3040;42.654;23.296;2023-04-26T10:17:41;93352.75;;;15.13;50.94
6024;BME280;3040;42.654;23.296;2023-04-26T10:20:11;93354.31;;;14.96;51.13
6024;BME280;3040;42.654;23.296;2023-04-26T10:22:43;93339.03;;;14.15;52.63
6024;BME280;3040;42.654;23.296;2023-04-26T10:25:11;93350.91;;;14.71;54.01
6024;BME280;3040;42.654;23.296;2023-04-26T10:27:49;93354.34;;;14.75;53.59
6024;BME280;3040;42.654;23.296;2023-04-26T10:30:20;93349.69;;;15.07;52.95
6024;BME280;3040;42.654;23.296;2023-04-26T10:33:12;93345.81;;;15.30;50.82
6024;BME280;3040;42.654;23.296;2023-04-26T10:36:06;93352.09;;;14.45;50.36
6024;BME280;3040;42.654;23.296;2023-04-26T10:38:34;93319.56;;;14.22;53.93
6024;BME280;3040;42.654;23.296;2023-04-26T10:41:29;93358.88;;;14.11;52.74
6024;BME280;3040;42.654;23.296;2023-04-26T10:43:59;93334.13;;;14.46;52.71
6024;BME280;3040;42.654;23.296;2023-04-26T10:46:35;93344.75;;;14.17;50.56
6024;BME280;3040;42.654;23.296;2023-04-26T10:49:18;93347.09;;;14.51;51.71
6024;BME280;3040;42.654;23.296;2023-04-26T10:52:07;93342.16;;;14.46;49.95
6024;BME280;3040;42.654;23.296;2023-04-26T10:54:49;93342.13;;;14.28;53.67
6024;BME280;3040;42.654;23.296;2023-04-26T10:57:16;93337.50;;;14.36;51.63
6024;BME280;3040;42.654;23.296;2023-04-26T11:00:20;93347.03;;;14.01;50.04
6024;BME280;3040;42.654;23.296;2023-04-26T11:02:56;93336.75;;;14.32;51.95
6024;BME280;3040;42.654;23.296;2023-04-26T11:05:33;93350.47;;;13.91;49.71
6024;BME280;3040;42.654;23.296;2023-04-26T11:08:06;93351.66;;;14.25;52.34
6024;BME280;3040;42.654;23.296;2023-04-26T11:10:36;93347.34;;;13.68;50.02
6024;BME280;3040;42.654;23.296;2023-04-26T11:13:03;93354.88;;;13.37;51.33
6024;BME280;3040;42.654;23.296;2023-04-26T11:15:32;93340.41;;;13.42;51.08
6024;BME280;3040;42.654;23.296;2023-04-26T11:18:01;93329.38;;;13.58;52.49
6024;BME280;3040;42.654;23.296;2023-04-26T11:20:29;93357.22;;;13.57;51.76
6024;BME280;3040;42.654;23.296;2023-04-26T11:22:57;93337.03;;;13.70;51.07
6024;BME280;3040;42.654;23.296;2023-04-26T11:25:25;93213.72;;;13.47;50.05
6024;BME280;3040;42.654;23.296;2023-04-26T11:27:58;93323.78;;;14.62;49.12
6024;BME280;3040;42.654;23.296;2023-04-26T11:30:27;93342.75;;;15.28;49.74
6024;BME280;3040;42.654;23.296;2023-04-26T11:32:55;93348.50;;;15.30;47.09
6024;BME280;3040;42.654;23.296;2023-04-26T11:35:22;93336.56;;;15.52;47.67
6024;BME280;3040;42.654;23.296;2023-04-26T11:37:50;93340.19;;;14.78;47.14
6024;BME280;3040;42.654;23.296;2023-04-26T11:40:18;93242.00;;;13.83;48.78
6024;BME280;3040;42.654;23.296;2023-04-26T11:42:45;93342.09;;;14.85;47.88
6024;BME280;3040;42.654;23.296;2023-04-26T11:45:14;93347.78;;;15.08;48.61
6024;BME280;3040;42.654;23.296;2023-04-26T11:47:43;93338.63;;;15.02;47.99
6024;BME280;3040;42.654;23.296;2023-04-26T11:50:12;93326.69;;;15.28;47.82
6024;BME280;3040;42.654;23.296;2023-04-26T11:52:40;93346.22;;;16.12;47.23
6024;BME280;3040;42.654;23.296;2023-04-26T11:55:08;93338.25;;;16.56;41.25
6024;BME280;3040;42.654;23.296;2023-04-26T11:57:35;93334.88;;;15.90;44.77
6024;BME280;3040;42.654;23.296;2023-04-26T12:00:13;93324.66;;;16.26;42.99
6024;BME280;3040;42.654;23.296;2023-04-26T12:02:43;93329.72;;;15.37;45.08
6024;BME280;3040;42.654;23.296;2023-04-26T12:05:19;93338.03;;;15.71;46.05
6024;BME280;3040;42.654;23.296;2023-04-26T12:07:49;93330.44;;;15.55;44.65
6024;BME280;3040;42.654;23.296;2023-04-26T12:10:18;93328.13;;;15.57;46.67
6024;BME280;3040;42.654;23.296;2023-04-26T12:12:49;93320.88;;;15.54;48.51
6024;BME280;3040;42.654;23.296;2023-04-26T12:15:17;93321.84;;;15.88;46.11
6024;BME280;3040;42.654;23.296;2023-04-26T12:17:54;93315.75;;;15.84;46.85
6024;BME280;3040;42.654;23.296;2023-04-26T12:20:30;93313.22;;;15.45;45.59
6024;BME280;3040;42.654;23.296;2023-04-26T12:23:01;93229.03;;;14.06;46.71
6024;BME280;3040;42.654;23.296;2023-04-26T12:25:29;93283.66;;;14.12;46.08
6024;BME280;3040;42.654;23.296;2023-04-26T12:27:56;93324.19;;;14.46;46.53
6024;BME280;3040;42.654;23.296;2023-04-26T12:30:25;93316.50;;;14.80;45.49
6024;BME280;3040;42.654;23.296;2023-04-26T12:32:52;93309.25;;;14.42;46.11
6024;BME280;3040;42.654;23.296;2023-04-26T12:35:19;93321.47;;;14.04;47.43
6024;BME280;3040;42.654;23.296;2023-04-26T12:37:48;93295.84;;;13.67;49.24
6024;BME280;3040;42.654;23.296;2023-04-26T12:40:16;93318.41;;;13.91;49.52
6024;BME280;3040;42.654;23.296;2023-04-26T12:42:45;93315.34;;;14.24;49.79
6024;BME280;3040;42.654;23.296;2023-04-26T12:45:12;93313.88;;;14.52;49.40
6024;BME280;3040;42.654;23.296;2023-04-26T12:47:39;93319.47;;;15.18;50.19
6024;BME280;3040;42.654;23.296;2023-04-26T12:50:06;93312.91;;;15.29;48.09
6024;BME280;3040;42.654;23.296;2023-04-26T12:52:34;93308.78;;;15.11;47.98
6024;BME280;3040;42.654;23.296;2023-04-26T12:55:03;93321.50;;;14.50;48.45
6024;BME280;3040;42.654;23.296;2023-04-26T12:57:30;93334.41;;;13.84;49.40
6024;BME280;3040;42.654;23.296;2023-04-26T12:59:57;93329.81;;;13.81;50.22
6024;BME280;3040;42.654;23.296;2023-04-26T13:02:24;93322.16;;;13.69;50.71
6024;BME280;3040;42.654;23.296;2023-04-26T13:04:50;93326.78;;;14.00;53.11
6024;BME280;3040;42.654;23.296;2023-04-26T13:07:18;93323.41;;;14.42;50.28
6024;BME280;3040;42.654;23.296;2023-04-26T13:09:45;93327.59;;;14.33;50.29
6024;BME280;3040;42.654;23.296;2023-04-26T13:12:13;93336.75;;;14.10;49.76
6024;BME280;3040;42.654;23.296;2023-04-26T13:14:40;93330.91;;;13.62;51.88
6024;BME280;3040;42.654;23.296;2023-04-26T13:17:07;93347.78;;;13.91;52.81